sensor_id;sensor_type;location;lat;lon;timestamp;P1;durP1;ratioP1;P2;durP2;ratioP2
45522;SDS011;31254;51.680;5.394;2023-09-18T00:01:33;9.38;;;6.75;;
45522;SDS011;31254;51.680;5.394;2023-09-18T00:04:00;7.63;;;6.03;;
45522;SDS011;31254;51.680;5.394;2023-09-18T00:06:26;8.02;;;6.28;;
45522;SDS011;31254;51.680;5.394;2023-09-18T00:08:53;6.75;;;5.68;;
45522;SDS011;31254;51.680;5.394;2023-09-18T00:11:20;7.68;;;6.55;;
45522;SDS011;31254;51.680;5.394;2023-09-18T00:13:47;6.38;;;5.72;;
45522;SDS011;31254;51.680;5.394;2023-09-18T00:16:13;7.00;;;6.30;;
45522;SDS011;31254;51.680;5.394;2023-09-18T00:18:40;7.75;;;6.45;;
45522;SDS011;31254;51.680;5.394;2023-09-18T00:21:08;7.63;;;6.10;;
45522;SDS011;31254;51.680;5.394;2023-09-18T00:23:37;9.70;;;6.43;;
45522;SDS011;31254;51.680;5.394;2023-09-18T00:26:04;7.35;;;6.40;;
45522;SDS011;31254;51.680;5.394;2023-09-18T00:28:31;7.60;;;6.75;;
45522;SDS011;31254;51.680;5.394;2023-09-18T00:30:57;7.15;;;6.30;;
45522;SDS011;31254;51.680;5.394;2023-09-18T00:33:24;10.82;;;7.05;;
45522;SDS011;31254;51.680;5.394;2023-09-18T00:35:51;7.38;;;6.38;;
45522;SDS011;31254;51.680;5.394;2023-09-18T00:38:18;8.40;;;6.60;;
45522;SDS011;31254;51.680;5.394;2023-09-18T00:40:46;9.15;;;5.80;;
45522;SDS011;31254;51.680;5.394;2023-09-18T00:43:12;9.43;;;6.28;;
45522;SDS011;31254;51.680;5.394;2023-09-18T00:45:44;7.93;;;6.57;;
45522;SDS011;31254;51.680;5.394;2023-09-18T00:48:12;7.57;;;6.47;;
45522;SDS011;31254;51.680;5.394;2023-09-18T00:50:40;7.53;;;6.20;;
45522;SDS011;31254;51.680;5.394;2023-09-18T00:53:08;6.78;;;6.07;;
45522;SDS011;31254;51.680;5.394;2023-09-18T00:55:38;8.77;;;6.03;;
45522;SDS011;31254;51.680;5.394;2023-09-18T00:58:06;9.25;;;6.57;;
45522;SDS011;31254;51.680;5.394;2023-09-18T01:00:33;7.68;;;6.50;;
45522;SDS011;31254;51.680;5.394;2023-09-18T01:03:00;6.65;;;5.90;;
45522;SDS011;31254;51.680;5.394;2023-09-18T01:05:28;9.10;;;6.28;;
45522;SDS011;31254;51.680;5.394;2023-09-18T01:07:57;7.53;;;5.97;;
45522;SDS011;31254;51.680;5.394;2023-09-18T01:10:24;8.20;;;6.85;;
45522;SDS011;31254;51.680;5.394;2023-09-18T01:13:04;9.70;;;6.57;;
45522;SDS011;31254;51.680;5.394;2023-09-18T01:15:42;8.50;;;6.25;;
45522;SDS011;31254;51.680;5.394;2023-09-18T01:18:14;8.60;;;6.55;;
45522;SDS011;31254;51.680;5.394;2023-09-18T01:20:43;8.65;;;6.22;;
45522;SDS011;31254;51.680;5.394;2023-09-18T01:23:10;8.10;;;6.40;;
45522;SDS011;31254;51.680;5.394;2023-09-18T01:25:40;7.85;;;6.47;;
45522;SDS011;31254;51.680;5.394;2023-09-18T01:28:07;9.65;;;6.55;;
45522;SDS011;31254;51.680;5.394;2023-09-18T01:30:33;7.97;;;6.75;;
45522;SDS011;31254;51.680;5.394;2023-09-18T01:33:01;10.07;;;7.20;;
45522;SDS011;31254;51.680;5.394;2023-09-18T01:35:29;10.80;;;7.75;;
45522;SDS011;31254;51.680;5.394;2023-09-18T01:37:57;9.05;;;7.60;;
45522;SDS011;31254;51.680;5.394;2023-09-18T01:40:26;7.65;;;6.63;;
45522;SDS011;31254;51.680;5.394;2023-09-18T01:42:53;10.25;;;7.93;;
45522;SDS011;31254;51.680;5.394;2023-09-18T01:45:19;9.93;;;7.57;;
45522;SDS011;31254;51.680;5.394;2023-09-18T01:47:46;9.48;;;7.15;;
45522;SDS011;31254;51.680;5.394;2023-09-18T01:50:13;7.97;;;6.70;;
45522;SDS011;31254;51.680;5.394;2023-09-18T01:52:40;8.90;;;7.68;;
45522;SDS011;31254;51.680;5.394;2023-09-18T01:55:06;8.02;;;7.10;;
45522;SDS011;31254;51.680;5.394;2023-09-18T01:57:34;11.25;;;7.00;;
45522;SDS011;31254;51.680;5.394;2023-09-18T02:00:00;8.95;;;7.13;;
45522;SDS011;31254;51.680;5.394;2023-09-18T02:02:27;11.35;;;7.55;;
45522;SDS011;31254;51.680;5.394;2023-09-18T02:05:15;9.07;;;7.80;;
45522;SDS011;31254;51.680;5.394;2023-09-18T02:07:42;9.80;;;7.30;;
45522;SDS011;31254;51.680;5.394;2023-09-18T02:10:09;10.75;;;7.20;;
45522;SDS011;31254;51.680;5.394;2023-09-18T02:12:36;8.15;;;6.45;;
45522;SDS011;31254;51.680;5.394;2023-09-18T02:15:03;8.75;;;7.03;;
45522;SDS011;31254;51.680;5.394;2023-09-18T02:17:33;10.35;;;8.07;;
45522;SDS011;31254;51.680;5.394;2023-09-18T02:19:59;8.98;;;7.25;;
45522;SDS011;31254;51.680;5.394;2023-09-18T02:22:34;12.60;;;7.00;;
45522;SDS011;31254;51.680;5.394;2023-09-18T02:25:00;9.18;;;7.50;;
45522;SDS011;31254;51.680;5.394;2023-09-18T02:27:27;9.77;;;7.07;;
45522;SDS011;31254;51.680;5.394;2023-09-18T02:29:53;11.23;;;7.40;;
45522;SDS011;31254;51.680;5.394;2023-09-18T02:32:20;8.32;;;6.90;;
45522;SDS011;31254;51.680;5.394;2023-09-18T02:34:47;9.32;;;6.60;;
45522;SDS011;31254;51.680;5.394;2023-09-18T02:37:14;9.18;;;6.78;;
45522;SDS011;31254;51.680;5.394;2023-09-18T02:39:40;9.23;;;6.82;;
45522;SDS011;31254;51.680;5.394;2023-09-18T02:42:07;8.07;;;6.13;;
45522;SDS011;31254;51.680;5.394;2023-09-18T02:44:34;8.38;;;6.85;;
45522;SDS011;31254;51.680;5.394;2023-09-18T02:47:00;8.77;;;6.30;;
45522;SDS011;31254;51.680;5.394;2023-09-18T02:49:27;7.38;;;5.68;;
45522;SDS011;31254;51.680;5.394;2023-09-18T02:51:56;8.00;;;6.40;;
45522;SDS011;31254;51.680;5.394;2023-09-18T02:54:22;8.18;;;5.90;;
45522;SDS011;31254;51.680;5.394;2023-09-18T02:56:49;8.68;;;6.15;;
45522;SDS011;31254;51.680;5.394;2023-09-18T02:59:15;7.63;;;5.63;;
45522;SDS011;31254;51.680;5.394;2023-09-18T03:01:42;7.85;;;6.00;;
45522;SDS011;31254;51.680;5.394;2023-09-18T03:04:09;7.85;;;5.38;;
45522;SDS011;31254;51.680;5.394;2023-09-18T03:06:37;7.78;;;5.70;;
45522;SDS011;31254;51.680;5.394;2023-09-18T03:09:05;8.68;;;5.88;;
45522;SDS011;31254;51.680;5.394;2023-09-18T03:11:32;7.63;;;5.63;;
45522;SDS011;31254;51.680;5.394;2023-09-18T03:13:59;5.88;;;5.05;;
45522;SDS011;31254;51.680;5.394;2023-09-18T03:16:25;7.75;;;5.00;;
45522;SDS011;31254;51.680;5.394;2023-09-18T03:18:52;9.10;;;5.05;;
45522;SDS011;31254;51.680;5.394;2023-09-18T03:21:19;7.40;;;5.25;;
45522;SDS011;31254;51.680;5.394;2023-09-18T03:23:46;10.85;;;5.05;;
45522;SDS011;31254;51.680;5.394;2023-09-18T03:26:12;6.97;;;5.53;;
45522;SDS011;31254;51.680;5.394;2023-09-18T03:28:39;8.48;;;5.30;;
45522;SDS011;31254;51.680;5.394;2023-09-18T03:31:06;5.95;;;5.10;;
45522;SDS011;31254;51.680;5.394;2023-09-18T03:33:33;8.10;;;5.35;;
45522;SDS011;31254;51.680;5.394;2023-09-18T03:36:00;10.45;;;5.57;;
45522;SDS011;31254;51.680;5.394;2023-09-18T03:38:26;5.82;;;4.55;;
45522;SDS011;31254;51.680;5.394;2023-09-18T03:40:53;8.02;;;5.00;;
45522;SDS011;31254;51.680;5.394;2023-09-18T03:43:20;7.10;;;5.20;;
45522;SDS011;31254;51.680;5.394;2023-09-18T03:45:47;5.15;;;4.55;;
45522;SDS011;31254;51.680;5.394;2023-09-18T03:48:14;7.20;;;4.70;;
45522;SDS011;31254;51.680;5.394;2023-09-18T03:50:41;8.38;;;4.60;;
45522;SDS011;31254;51.680;5.394;2023-09-18T03:53:09;6.53;;;4.75;;
45522;SDS011;31254;51.680;5.394;2023-09-18T03:55:36;6.68;;;5.10;;
45522;SDS011;31254;51.680;5.394;2023-09-18T03:58:04;6.20;;;4.88;;
45522;SDS011;31254;51.680;5.394;2023-09-18T04:00:31;6.13;;;4.78;;
45522;SDS011;31254;51.680;5.394;2023-09-18T04:02:58;6.18;;;4.95;;
45522;SDS011;31254;51.680;5.394;2023-09-18T04:05:24;8.27;;;5.50;;
45522;SDS011;31254;51.680;5.394;2023-09-18T04:07:51;6.65;;;4.60;;
45522;SDS011;31254;51.680;5.394;2023-09-18T04:10:18;7.90;;;4.93;;
45522;SDS011;31254;51.680;5.394;2023-09-18T04:12:50;7.18;;;4.28;;
45522;SDS011;31254;51.680;5.394;2023-09-18T04:15:18;9.60;;;4.90;;
45522;SDS011;31254;51.680;5.394;2023-09-18T04:17:45;7.18;;;5.10;;
45522;SDS011;31254;51.680;5.394;2023-09-18T04:20:12;8.77;;;4.97;;
45522;SDS011;31254;51.680;5.394;2023-09-18T04:22:43;6.53;;;5.15;;
45522;SDS011;31254;51.680;5.394;2023-09-18T04:25:12;6.82;;;5.15;;
45522;SDS011;31254;51.680;5.394;2023-09-18T04:27:39;7.82;;;5.07;;
45522;SDS011;31254;51.680;5.394;2023-09-18T04:30:06;10.00;;;5.07;;
45522;SDS011;31254;51.680;5.394;2023-09-18T04:32:36;7.35;;;5.13;;
45522;SDS011;31254;51.680;5.394;2023-09-18T04:35:04;9.07;;;5.10;;
45522;SDS011;31254;51.680;5.394;2023-09-18T04:37:35;6.38;;;4.80;;
45522;SDS011;31254;51.680;5.394;2023-09-18T04:40:04;11.45;;;5.00;;
45522;SDS011;31254;51.680;5.394;2023-09-18T04:42:37;10.57;;;5.00;;
45522;SDS011;31254;51.680;5.394;2023-09-18T04:45:05;8.20;;;5.35;;
45522;SDS011;31254;51.680;5.394;2023-09-18T04:47:32;6.43;;;4.72;;
45522;SDS011;31254;51.680;5.394;2023-09-18T04:49:59;11.35;;;4.95;;
45522;SDS011;31254;51.680;5.394;2023-09-18T04:52:26;8.07;;;4.85;;
45522;SDS011;31254;51.680;5.394;2023-09-18T04:54:52;9.68;;;5.10;;
45522;SDS011;31254;51.680;5.394;2023-09-18T04:57:20;6.43;;;4.97;;
45522;SDS011;31254;51.680;5.394;2023-09-18T04:59:48;6.63;;;4.90;;
45522;SDS011;31254;51.680;5.394;2023-09-18T05:02:30;8.43;;;4.93;;
45522;SDS011;31254;51.680;5.394;2023-09-18T05:04:57;6.15;;;4.97;;
45522;SDS011;31254;51.680;5.394;2023-09-18T05:07:24;7.47;;;4.60;;
45522;SDS011;31254;51.680;5.394;2023-09-18T05:09:51;7.60;;;4.75;;
45522;SDS011;31254;51.680;5.394;2023-09-18T05:12:18;6.30;;;4.72;;
45522;SDS011;31254;51.680;5.394;2023-09-18T05:14:45;9.30;;;4.75;;
45522;SDS011;31254;51.680;5.394;2023-09-18T05:17:14;9.65;;;5.00;;
45522;SDS011;31254;51.680;5.394;2023-09-18T05:19:42;10.15;;;6.03;;
45522;SDS011;31254;51.680;5.394;2023-09-18T05:22:10;8.73;;;4.90;;
45522;SDS011;31254;51.680;5.394;2023-09-18T05:24:37;7.20;;;4.72;;
45522;SDS011;31254;51.680;5.394;2023-09-18T05:27:05;7.97;;;4.43;;
45522;SDS011;31254;51.680;5.394;2023-09-18T05:29:34;7.07;;;4.85;;
45522;SDS011;31254;51.680;5.394;2023-09-18T05:32:02;8.02;;;4.32;;
45522;SDS011;31254;51.680;5.394;2023-09-18T05:34:30;7.18;;;4.68;;
45522;SDS011;31254;51.680;5.394;2023-09-18T05:36:58;9.38;;;4.32;;
45522;SDS011;31254;51.680;5.394;2023-09-18T05:39:24;6.82;;;4.78;;
45522;SDS011;31254;51.680;5.394;2023-09-18T05:41:51;8.18;;;4.63;;
45522;SDS011;31254;51.680;5.394;2023-09-18T05:44:18;6.38;;;4.20;;
45522;SDS011;31254;51.680;5.394;2023-09-18T05:46:45;8.55;;;4.95;;
45522;SDS011;31254;51.680;5.394;2023-09-18T05:49:11;7.45;;;4.95;;
45522;SDS011;31254;51.680;5.394;2023-09-18T05:51:38;7.85;;;4.60;;
45522;SDS011;31254;51.680;5.394;2023-09-18T05:54:05;8.38;;;4.60;;
45522;SDS011;31254;51.680;5.394;2023-09-18T05:56:32;7.00;;;4.60;;
45522;SDS011;31254;51.680;5.394;2023-09-18T05:58:58;8.93;;;4.72;;
45522;SDS011;31254;51.680;5.394;2023-09-18T06:01:25;7.63;;;4.47;;
45522;SDS011;31254;51.680;5.394;2023-09-18T06:03:52;9.25;;;4.40;;
45522;SDS011;31254;51.680;5.394;2023-09-18T06:06:19;6.78;;;4.35;;
45522;SDS011;31254;51.680;5.394;2023-09-18T06:08:45;6.03;;;3.90;;
45522;SDS011;31254;51.680;5.394;2023-09-18T06:11:12;7.90;;;4.30;;
45522;SDS011;31254;51.680;5.394;2023-09-18T06:13:39;6.97;;;4.40;;
45522;SDS011;31254;51.680;5.394;2023-09-18T06:16:05;7.22;;;4.35;;
45522;SDS011;31254;51.680;5.394;2023-09-18T06:18:34;8.05;;;4.60;;
45522;SDS011;31254;51.680;5.394;2023-09-18T06:21:04;8.48;;;4.45;;
45522;SDS011;31254;51.680;5.394;2023-09-18T06:23:31;7.57;;;4.40;;
45522;SDS011;31254;51.680;5.394;2023-09-18T06:25:58;6.18;;;4.25;;
45522;SDS011;31254;51.680;5.394;2023-09-18T06:28:25;6.55;;;4.40;;
45522;SDS011;31254;51.680;5.394;2023-09-18T06:30:52;7.57;;;4.25;;
45522;SDS011;31254;51.680;5.394;2023-09-18T06:33:20;9.98;;;4.18;;
45522;SDS011;31254;51.680;5.394;2023-09-18T06:35:47;6.25;;;4.18;;
45522;SDS011;31254;51.680;5.394;2023-09-18T06:38:14;7.15;;;4.20;;
45522;SDS011;31254;51.680;5.394;2023-09-18T06:40:41;5.35;;;3.53;;
45522;SDS011;31254;51.680;5.394;2023-09-18T06:43:08;7.32;;;3.45;;
45522;SDS011;31254;51.680;5.394;2023-09-18T06:45:35;5.90;;;3.53;;
45522;SDS011;31254;51.680;5.394;2023-09-18T06:48:04;7.10;;;3.92;;
45522;SDS011;31254;51.680;5.394;2023-09-18T06:50:31;5.72;;;3.60;;
45522;SDS011;31254;51.680;5.394;2023-09-18T06:52:58;7.72;;;3.60;;
45522;SDS011;31254;51.680;5.394;2023-09-18T06:55:24;4.95;;;3.15;;
45522;SDS011;31254;51.680;5.394;2023-09-18T06:57:51;4.63;;;3.10;;
45522;SDS011;31254;51.680;5.394;2023-09-18T07:00:18;5.90;;;3.17;;
45522;SDS011;31254;51.680;5.394;2023-09-18T07:02:47;4.57;;;2.83;;
45522;SDS011;31254;51.680;5.394;2023-09-18T07:05:16;7.65;;;3.28;;
45522;SDS011;31254;51.680;5.394;2023-09-18T07:07:43;6.45;;;2.90;;
45522;SDS011;31254;51.680;5.394;2023-09-18T07:10:09;7.78;;;3.30;;
45522;SDS011;31254;51.680;5.394;2023-09-18T07:12:36;4.40;;;2.67;;
45522;SDS011;31254;51.680;5.394;2023-09-18T07:15:03;6.60;;;2.80;;
45522;SDS011;31254;51.680;5.394;2023-09-18T07:17:32;5.05;;;3.00;;
45522;SDS011;31254;51.680;5.394;2023-09-18T07:19:59;3.92;;;2.50;;
45522;SDS011;31254;51.680;5.394;2023-09-18T07:22:26;4.40;;;2.60;;
45522;SDS011;31254;51.680;5.394;2023-09-18T07:24:56;4.20;;;2.53;;
45522;SDS011;31254;51.680;5.394;2023-09-18T07:27:23;5.28;;;2.70;;
45522;SDS011;31254;51.680;5.394;2023-09-18T07:29:49;5.97;;;2.60;;
45522;SDS011;31254;51.680;5.394;2023-09-18T07:32:16;5.40;;;3.05;;
45522;SDS011;31254;51.680;5.394;2023-09-18T07:35:01;4.82;;;2.45;;
45522;SDS011;31254;51.680;5.394;2023-09-18T07:37:31;5.13;;;2.70;;
45522;SDS011;31254;51.680;5.394;2023-09-18T07:39:57;8.45;;;2.70;;
45522;SDS011;31254;51.680;5.394;2023-09-18T07:42:27;6.28;;;2.90;;
45522;SDS011;31254;51.680;5.394;2023-09-18T07:44:54;4.93;;;2.55;;
45522;SDS011;31254;51.680;5.394;2023-09-18T07:47:24;4.07;;;2.38;;
45522;SDS011;31254;51.680;5.394;2023-09-18T07:49:51;5.75;;;2.22;;
45522;SDS011;31254;51.680;5.394;2023-09-18T07:52:18;4.32;;;2.28;;
45522;SDS011;31254;51.680;5.394;2023-09-18T07:54:44;6.03;;;2.65;;
45522;SDS011;31254;51.680;5.394;2023-09-18T07:57:11;5.07;;;2.33;;
45522;SDS011;31254;51.680;5.394;2023-09-18T07:59:38;5.53;;;2.58;;
45522;SDS011;31254;51.680;5.394;2023-09-18T08:02:05;4.20;;;2.40;;
45522;SDS011;31254;51.680;5.394;2023-09-18T08:04:32;3.42;;;2.08;;
45522;SDS011;31254;51.680;5.394;2023-09-18T08:06:59;5.70;;;2.40;;
45522;SDS011;31254;51.680;5.394;2023-09-18T08:09:26;5.32;;;1.90;;
45522;SDS011;31254;51.680;5.394;2023-09-18T08:11:56;5.63;;;1.73;;
45522;SDS011;31254;51.680;5.394;2023-09-18T08:14:23;5.95;;;2.03;;
45522;SDS011;31254;51.680;5.394;2023-09-18T08:16:55;4.53;;;1.88;;
45522;SDS011;31254;51.680;5.394;2023-09-18T08:19:24;3.83;;;1.95;;
45522;SDS011;31254;51.680;5.394;2023-09-18T08:21:53;6.13;;;2.10;;
45522;SDS011;31254;51.680;5.394;2023-09-18T08:24:20;5.22;;;1.80;;
45522;SDS011;31254;51.680;5.394;2023-09-18T08:26:47;3.35;;;1.98;;
45522;SDS011;31254;51.680;5.394;2023-09-18T08:29:14;3.55;;;2.10;;
45522;SDS011;31254;51.680;5.394;2023-09-18T08:31:41;2.85;;;2.05;;
45522;SDS011;31254;51.680;5.394;2023-09-18T08:34:08;4.55;;;1.80;;
45522;SDS011;31254;51.680;5.394;2023-09-18T08:36:35;3.85;;;1.60;;
45522;SDS011;31254;51.680;5.394;2023-09-18T08:39:02;4.65;;;1.95;;
45522;SDS011;31254;51.680;5.394;2023-09-18T08:41:32;4.00;;;2.00;;
45522;SDS011;31254;51.680;5.394;2023-09-18T08:44:00;8.35;;;2.17;;
45522;SDS011;31254;51.680;5.394;2023-09-18T08:46:30;4.43;;;1.83;;
45522;SDS011;31254;51.680;5.394;2023-09-18T08:48:59;3.95;;;1.80;;
45522;SDS011;31254;51.680;5.394;2023-09-18T08:51:26;3.80;;;1.90;;
45522;SDS011;31254;51.680;5.394;2023-09-18T08:53:54;6.25;;;1.83;;
45522;SDS011;31254;51.680;5.394;2023-09-18T08:56:21;5.18;;;2.00;;
45522;SDS011;31254;51.680;5.394;2023-09-18T08:58:50;4.35;;;2.03;;
45522;SDS011;31254;51.680;5.394;2023-09-18T09:01:17;4.15;;;2.30;;
45522;SDS011;31254;51.680;5.394;2023-09-18T09:03:44;4.93;;;2.40;;
45522;SDS011;31254;51.680;5.394;2023-09-18T09:06:13;6.45;;;2.53;;
45522;SDS011;31254;51.680;5.394;2023-09-18T09:08:41;6.38;;;2.25;;
45522;SDS011;31254;51.680;5.394;2023-09-18T09:11:08;4.47;;;2.25;;
45522;SDS011;31254;51.680;5.394;2023-09-18T09:13:35;5.05;;;2.20;;
45522;SDS011;31254;51.680;5.394;2023-09-18T09:16:12;5.90;;;2.20;;
45522;SDS011;31254;51.680;5.394;2023-09-18T09:18:49;4.18;;;2.28;;
45522;SDS011;31254;51.680;5.394;2023-09-18T09:21:18;3.78;;;2.22;;
45522;SDS011;31254;51.680;5.394;2023-09-18T09:23:49;6.88;;;2.45;;
45522;SDS011;31254;51.680;5.394;2023-09-18T09:26:21;8.40;;;2.33;;
45522;SDS011;31254;51.680;5.394;2023-09-18T09:28:50;5.55;;;2.15;;
45522;SDS011;31254;51.680;5.394;2023-09-18T09:33:55;6.78;;;2.33;;
45522;SDS011;31254;51.680;5.394;2023-09-18T09:36:25;8.23;;;2.40;;
45522;SDS011;31254;51.680;5.394;2023-09-18T09:38:56;6.60;;;2.03;;
45522;SDS011;31254;51.680;5.394;2023-09-18T09:41:24;5.85;;;2.28;;
45522;SDS011;31254;51.680;5.394;2023-09-18T09:43:54;6.13;;;2.35;;
45522;SDS011;31254;51.680;5.394;2023-09-18T09:46:22;8.73;;;2.38;;
45522;SDS011;31254;51.680;5.394;2023-09-18T09:49:02;6.55;;;2.53;;
45522;SDS011;31254;51.680;5.394;2023-09-18T09:51:33;5.03;;;2.50;;
45522;SDS011;31254;51.680;5.394;2023-09-18T09:54:00;5.80;;;2.60;;
45522;SDS011;31254;51.680;5.394;2023-09-18T09:59:15;6.20;;;2.40;;
45522;SDS011;31254;51.680;5.394;2023-09-18T10:01:42;6.07;;;2.15;;
45522;SDS011;31254;51.680;5.394;2023-09-18T10:04:16;5.65;;;2.42;;
45522;SDS011;31254;51.680;5.394;2023-09-18T10:06:44;4.07;;;2.42;;
45522;SDS011;31254;51.680;5.394;2023-09-18T10:09:32;8.90;;;2.85;;
45522;SDS011;31254;51.680;5.394;2023-09-18T10:12:02;7.00;;;2.78;;
45522;SDS011;31254;51.680;5.394;2023-09-18T10:14:35;5.50;;;2.97;;
45522;SDS011;31254;51.680;5.394;2023-09-18T10:17:24;8.25;;;3.13;;
45522;SDS011;31254;51.680;5.394;2023-09-18T10:22:37;9.10;;;2.75;;
45522;SDS011;31254;51.680;5.394;2023-09-18T10:25:10;5.45;;;2.40;;
45522;SDS011;31254;51.680;5.394;2023-09-18T10:27:47;5.07;;;2.50;;
45522;SDS011;31254;51.680;5.394;2023-09-18T10:30:16;11.45;;;2.53;;
45522;SDS011;31254;51.680;5.394;2023-09-18T10:32:45;4.15;;;2.22;;
45522;SDS011;31254;51.680;5.394;2023-09-18T10:35:12;8.13;;;2.78;;
45522;SDS011;31254;51.680;5.394;2023-09-18T10:37:39;5.70;;;2.33;;
45522;SDS011;31254;51.680;5.394;2023-09-18T10:40:08;5.13;;;2.50;;
45522;SDS011;31254;51.680;5.394;2023-09-18T10:42:41;6.35;;;2.65;;
45522;SDS011;31254;51.680;5.394;2023-09-18T10:45:09;9.80;;;2.60;;
45522;SDS011;31254;51.680;5.394;2023-09-18T10:47:41;6.70;;;2.55;;
45522;SDS011;31254;51.680;5.394;2023-09-18T10:50:11;8.57;;;2.83;;
45522;SDS011;31254;51.680;5.394;2023-09-18T10:52:42;9.50;;;2.67;;
45522;SDS011;31254;51.680;5.394;2023-09-18T10:55:13;5.60;;;3.05;;
45522;SDS011;31254;51.680;5.394;2023-09-18T10:57:50;7.30;;;3.28;;
45522;SDS011;31254;51.680;5.394;2023-09-18T11:00:18;5.80;;;2.70;;
45522;SDS011;31254;51.680;5.394;2023-09-18T11:02:51;5.45;;;2.90;;
45522;SDS011;31254;51.680;5.394;2023-09-18T11:05:29;5.82;;;2.75;;
45522;SDS011;31254;51.680;5.394;2023-09-18T11:11:03;4.82;;;2.60;;
45522;SDS011;31254;51.680;5.394;2023-09-18T11:13:50;6.15;;;2.88;;
45522;SDS011;31254;51.680;5.394;2023-09-18T11:21:25;8.00;;;3.50;;
45522;SDS011;31254;51.680;5.394;2023-09-18T11:26:32;9.80;;;3.15;;
45522;SDS011;31254;51.680;5.394;2023-09-18T11:29:04;6.65;;;3.28;;
45522;SDS011;31254;51.680;5.394;2023-09-18T11:36:55;7.78;;;2.85;;
45522;SDS011;31254;51.680;5.394;2023-09-18T11:39:35;5.45;;;3.28;;
45522;SDS011;31254;51.680;5.394;2023-09-18T11:42:11;4.80;;;2.50;;
45522;SDS011;31254;51.680;5.394;2023-09-18T11:44:41;7.07;;;2.88;;
45522;SDS011;31254;51.680;5.394;2023-09-18T11:47:09;7.25;;;3.20;;
45522;SDS011;31254;51.680;5.394;2023-09-18T11:50:01;6.60;;;2.85;;
45522;SDS011;31254;51.680;5.394;2023-09-18T11:52:32;6.03;;;2.97;;
45522;SDS011;31254;51.680;5.394;2023-09-18T11:55:00;8.88;;;2.83;;
45522;SDS011;31254;51.680;5.394;2023-09-18T11:57:30;5.53;;;2.70;;
45522;SDS011;31254;51.680;5.394;2023-09-18T12:00:02;8.68;;;3.03;;
45522;SDS011;31254;51.680;5.394;2023-09-18T12:02:38;6.18;;;2.65;;
45522;SDS011;31254;51.680;5.394;2023-09-18T12:07:42;4.80;;;2.58;;
45522;SDS011;31254;51.680;5.394;2023-09-18T12:10:12;6.03;;;2.78;;
45522;SDS011;31254;51.680;5.394;2023-09-18T12:12:41;6.80;;;2.40;;
45522;SDS011;31254;51.680;5.394;2023-09-18T12:15:11;4.97;;;2.47;;
45522;SDS011;31254;51.680;5.394;2023-09-18T12:17:39;5.75;;;2.45;;
45522;SDS011;31254;51.680;5.394;2023-09-18T12:20:05;6.63;;;2.70;;
45522;SDS011;31254;51.680;5.394;2023-09-18T12:22:33;10.18;;;2.65;;
45522;SDS011;31254;51.680;5.394;2023-09-18T12:25:10;5.85;;;2.22;;
45522;SDS011;31254;51.680;5.394;2023-09-18T12:27:42;7.18;;;2.75;;
45522;SDS011;31254;51.680;5.394;2023-09-18T12:30:10;4.15;;;2.50;;
45522;SDS011;31254;51.680;5.394;2023-09-18T12:32:38;5.82;;;2.22;;
45522;SDS011;31254;51.680;5.394;2023-09-18T12:35:06;6.43;;;2.22;;
45522;SDS011;31254;51.680;5.394;2023-09-18T12:37:39;7.18;;;2.70;;
45522;SDS011;31254;51.680;5.394;2023-09-18T12:40:20;6.28;;;2.75;;
45522;SDS011;31254;51.680;5.394;2023-09-18T12:42:56;8.02;;;2.63;;
45522;SDS011;31254;51.680;5.394;2023-09-18T12:45:24;4.78;;;2.30;;
45522;SDS011;31254;51.680;5.394;2023-09-18T12:47:51;8.25;;;2.78;;
45522;SDS011;31254;51.680;5.394;2023-09-18T12:50:20;6.95;;;2.97;;
45522;SDS011;31254;51.680;5.394;2023-09-18T12:52:47;5.72;;;2.72;;
45522;SDS011;31254;51.680;5.394;2023-09-18T12:55:23;5.35;;;2.20;;
45522;SDS011;31254;51.680;5.394;2023-09-18T12:57:51;5.40;;;2.15;;
45522;SDS011;31254;51.680;5.394;2023-09-18T13:00:19;4.70;;;2.22;;
45522;SDS011;31254;51.680;5.394;2023-09-18T13:02:49;5.03;;;2.28;;
45522;SDS011;31254;51.680;5.394;2023-09-18T13:05:21;7.47;;;2.17;;
45522;SDS011;31254;51.680;5.394;2023-09-18T13:07:54;7.60;;;2.67;;
45522;SDS011;31254;51.680;5.394;2023-09-18T13:10:21;4.22;;;2.22;;
45522;SDS011;31254;51.680;5.394;2023-09-18T13:12:52;5.22;;;2.10;;
45522;SDS011;31254;51.680;5.394;2023-09-18T13:15:31;5.35;;;2.65;;
45522;SDS011;31254;51.680;5.394;2023-09-18T13:18:08;4.38;;;1.90;;
45522;SDS011;31254;51.680;5.394;2023-09-18T13:20:36;3.80;;;2.20;;
45522;SDS011;31254;51.680;5.394;2023-09-18T13:23:03;6.88;;;2.20;;
45522;SDS011;31254;51.680;5.394;2023-09-18T13:25:37;4.85;;;2.00;;
45522;SDS011;31254;51.680;5.394;2023-09-18T13:28:07;3.67;;;2.00;;
45522;SDS011;31254;51.680;5.394;2023-09-18T13:30:38;3.67;;;1.98;;
45522;SDS011;31254;51.680;5.394;2023-09-18T13:33:07;3.13;;;1.95;;
45522;SDS011;31254;51.680;5.394;2023-09-18T13:35:40;3.05;;;1.70;;
45522;SDS011;31254;51.680;5.394;2023-09-18T13:38:09;4.18;;;2.00;;
45522;SDS011;31254;51.680;5.394;2023-09-18T13:40:38;6.07;;;2.10;;
45522;SDS011;31254;51.680;5.394;2023-09-18T13:43:05;3.13;;;2.25;;
45522;SDS011;31254;51.680;5.394;2023-09-18T13:45:33;2.95;;;1.75;;
45522;SDS011;31254;51.680;5.394;2023-09-18T13:48:01;5.50;;;1.90;;
45522;SDS011;31254;51.680;5.394;2023-09-18T13:50:32;3.42;;;1.90;;
45522;SDS011;31254;51.680;5.394;2023-09-18T13:53:01;4.30;;;2.00;;
45522;SDS011;31254;51.680;5.394;2023-09-18T13:55:30;3.75;;;1.90;;
45522;SDS011;31254;51.680;5.394;2023-09-18T13:57:57;3.38;;;1.85;;
45522;SDS011;31254;51.680;5.394;2023-09-18T14:00:23;5.07;;;2.33;;
45522;SDS011;31254;51.680;5.394;2023-09-18T14:02:52;4.45;;;1.90;;
45522;SDS011;31254;51.680;5.394;2023-09-18T14:05:19;5.68;;;2.20;;
45522;SDS011;31254;51.680;5.394;2023-09-18T14:07:46;6.60;;;2.00;;
45522;SDS011;31254;51.680;5.394;2023-09-18T14:10:14;3.05;;;1.63;;
45522;SDS011;31254;51.680;5.394;2023-09-18T14:12:41;4.30;;;2.17;;
45522;SDS011;31254;51.680;5.394;2023-09-18T14:15:08;4.40;;;2.00;;
45522;SDS011;31254;51.680;5.394;2023-09-18T14:17:37;3.30;;;2.00;;
45522;SDS011;31254;51.680;5.394;2023-09-18T14:20:04;2.47;;;1.70;;
45522;SDS011;31254;51.680;5.394;2023-09-18T14:22:34;3.05;;;1.63;;
45522;SDS011;31254;51.680;5.394;2023-09-18T14:25:02;4.35;;;2.00;;
45522;SDS011;31254;51.680;5.394;2023-09-18T14:27:31;3.42;;;1.80;;
45522;SDS011;31254;51.680;5.394;2023-09-18T14:29:59;2.63;;;1.67;;
45522;SDS011;31254;51.680;5.394;2023-09-18T14:32:27;5.68;;;2.00;;
45522;SDS011;31254;51.680;5.394;2023-09-18T14:34:54;3.92;;;1.85;;
45522;SDS011;31254;51.680;5.394;2023-09-18T14:37:20;3.60;;;1.90;;
45522;SDS011;31254;51.680;5.394;2023-09-18T14:39:47;4.70;;;2.00;;
45522;SDS011;31254;51.680;5.394;2023-09-18T14:42:13;2.70;;;1.73;;
45522;SDS011;31254;51.680;5.394;2023-09-18T14:44:40;3.88;;;2.00;;
45522;SDS011;31254;51.680;5.394;2023-09-18T14:47:14;3.13;;;1.70;;
45522;SDS011;31254;51.680;5.394;2023-09-18T14:49:50;4.82;;;1.60;;
45522;SDS011;31254;51.680;5.394;2023-09-18T14:52:16;3.88;;;1.92;;
45522;SDS011;31254;51.680;5.394;2023-09-18T14:54:45;3.80;;;1.80;;
45522;SDS011;31254;51.680;5.394;2023-09-18T14:57:12;2.72;;;1.70;;
45522;SDS011;31254;51.680;5.394;2023-09-18T14:59:39;5.80;;;2.00;;
45522;SDS011;31254;51.680;5.394;2023-09-18T15:02:09;3.88;;;1.60;;
45522;SDS011;31254;51.680;5.394;2023-09-18T15:04:35;3.05;;;1.50;;
45522;SDS011;31254;51.680;5.394;2023-09-18T15:07:03;3.85;;;1.70;;
45522;SDS011;31254;51.680;5.394;2023-09-18T15:09:30;3.78;;;2.03;;
45522;SDS011;31254;51.680;5.394;2023-09-18T15:11:56;6.78;;;1.48;;
45522;SDS011;31254;51.680;5.394;2023-09-18T15:14:23;3.17;;;1.75;;
45522;SDS011;31254;51.680;5.394;2023-09-18T15:16:50;6.07;;;1.55;;
45522;SDS011;31254;51.680;5.394;2023-09-18T15:19:17;4.28;;;2.00;;
45522;SDS011;31254;51.680;5.394;2023-09-18T15:21:46;7.53;;;1.65;;
45522;SDS011;31254;51.680;5.394;2023-09-18T15:24:13;8.82;;;1.38;;